Latest Weather Observations for Terrey Hills

IDN60801

Issued at 9:32 pm EDT Tuesday 17 January 2017 (issued every 30 minutes, with the page automatically refreshed every 10 minutes)

About weather observations | Map of weather stations | Latest weather observations for NSW | Other Formats
Station Details ID: 066059 Name: TERREY HILLS AWS Lat: -33.69 Lon: 151.23 Height: 199.0 m
Data from the previous 72 hours. | See also: Recent months at Terrey Hills
Date/Time
EDT
Temp
°C
App
Temp
°C
Dew
Point
°C
Rel
Hum
%
Delta-T
°C
Wind Press
QNH
hPa
Press
MSL
hPa
Rain since
9am
mm
Dir  Spd
km/h
Gust
km/h
Spd
kts
Gust
kts
17/09:30pm 31.2 32.0 18.2 46 8.4 N 11 19 6 10 - - 0.0
17/09:00pm 31.3 31.1 17.6 44 8.8 NNE 15 24 8 13 - - 0.0
17/08:30pm 30.4 30.4 18.2 48 7.9 NNE 15 24 8 13 - - 0.0
17/08:00pm 30.3 30.8 18.4 49 7.7 NNE 13 22 7 12 - - 0.0
17/07:30pm 30.2 30.9 18.0 48 7.9 NNE 11 19 6 10 - - 0.0
17/07:00pm 29.8 30.8 18.6 51 7.3 NE 11 20 6 11 - - 0.0
17/06:30pm 30.4 31.0 18.5 49 7.7 NE 13 22 7 12 - - 0.0
17/06:00pm 32.2 32.5 18.0 42 9.2 NE 13 20 7 11 - - 0.0
17/05:30pm 32.6 32.9 18.0 41 9.5 NE 13 32 7 17 - - 0.0
17/05:00pm 33.7 34.0 17.8 38 10.3 NE 13 28 7 15 - - 0.0
17/04:30pm 33.8 34.3 18.3 39 10.1 ENE 13 20 7 11 - - 0.0
17/04:00pm 35.0 34.5 18.6 38 10.8 ENE 19 28 10 15 - - 0.0
17/03:30pm 34.2 33.7 18.7 40 10.2 ENE 19 32 10 17 - - 0.0
17/03:00pm 35.4 36.3 19.3 38 10.7 ENE 13 22 7 12 - - 0.0
17/02:30pm 34.9 35.6 18.9 39 10.6 ENE 13 22 7 12 - - 0.0
17/02:00pm 35.2 36.3 19.6 40 10.4 E 13 22 7 12 - - 0.0
17/01:30pm 36.1 37.1 18.7 36 11.5 E 11 19 6 10 - - 0.0
17/01:00pm 35.4 37.3 18.5 37 11.1 E 6 11 3 6 - - 0.0
17/12:30pm 35.4 36.3 16.7 33 12.0 NNW 7 15 4 8 - - 0.0
17/12:00pm 34.6 35.6 17.8 37 10.9 N 9 17 5 9 - - 0.0
17/11:30am 32.8 33.1 17.0 38 10.1 NNW 11 19 6 10 - - 0.0
17/11:00am 31.4 31.7 16.9 41 9.2 N 11 17 6 9 - - 0.0
17/10:30am 29.8 30.7 17.6 48 7.8 N 9 17 5 9 - - 0.0
17/10:00am 28.7 30.5 18.2 53 6.8 N 6 11 3 6 - - 0.0
17/09:30am 27.5 30.0 19.8 63 5.1 NNW 6 9 3 5 - - 0.0
17/09:00am 26.1 29.5 20.9 73 3.5 NW 4 6 2 3 - - 0.2
17/08:30am 24.2 27.4 20.5 80 2.4 NW 4 6 2 3 - - 0.2
17/08:00am 22.7 27.1 21.3 92 0.9 CALM 0 4 0 2 - - 0.2
17/07:30am 20.8 23.7 20.6 99 0.1 WNW 6 7 3 4 - - 0.2
17/07:00am 19.5 22.2 19.5 100 0.0 WNW 4 6 2 3 - - 0.2
17/06:30am 19.0 22.3 19.0 100 0.0 CALM 0 0 0 0 - - 0.2
17/06:00am 18.4 20.2 18.4 100 0.0 WNW 6 9 3 5 - - 0.2
17/05:30am 19.3 21.4 19.3 100 0.0 NNW 7 15 4 8 - - 0.2
17/05:00am 19.6 22.0 19.6 100 0.0 NNE 6 9 3 5 - - 0.2
17/04:30am 19.4 22.1 19.4 100 0.0 NE 4 6 2 3 - - 0.2
17/04:00am 19.4 22.5 19.4 100 0.0 NE 2 4 1 2 - - 0.2
17/03:30am 19.3 22.3 19.3 100 0.0 NE 2 6 1 3 - - 0.2
17/03:00am 19.3 22.3 19.3 100 0.0 NE 2 6 1 3 - - 0.2
17/02:30am 19.4 22.1 19.4 100 0.0 NE 4 6 2 3 - - 0.2
17/02:00am 19.6 22.4 19.6 100 0.0 NNW 4 7 2 4 - - 0.2
17/01:30am 19.5 23.0 19.5 100 0.0 CALM 0 0 0 0 - - 0.2
17/01:00am 20.0 22.9 19.8 99 0.1 N 4 7 2 4 - - 0.2
17/12:30am 20.3 22.9 20.1 99 0.1 NNE 6 9 3 5 - - 0.2
17/12:00am 20.4 22.8 20.1 98 0.2 NNE 7 13 4 7 - - 0.2
 
Date/Time
EDT
Temp
°C
App
Temp
°C
Dew
Point
°C
Rel
Hum
%
Delta-T
°C
Wind Press
QNH
hPa
Press
MSL
hPa
Rain since
9am
mm
Dir  Spd
km/h
Gust
km/h
Spd
kts
Gust
kts
16/11:30pm 20.5 22.5 20.0 97 0.3 NNE 9 13 5 7 - - 0.2
16/11:00pm 20.7 22.3 19.9 95 0.5 NNE 11 17 6 9 - - 0.2
16/10:30pm 20.8 22.7 19.8 94 0.6 NNE 9 19 5 10 - - 0.2
16/10:00pm 20.9 21.9 19.4 91 1.0 NNE 13 20 7 11 - - 0.2
16/09:30pm 21.0 21.4 19.1 89 1.2 NE 15 30 8 16 - - 0.2
16/09:00pm 21.1 21.1 18.9 87 1.4 NE 17 30 9 16 - - 0.2
16/08:30pm 21.3 21.3 18.9 86 1.5 NE 17 33 9 18 - - 0.2
16/08:00pm 21.6 21.6 19.0 85 1.7 NE 17 33 9 18 - - 0.2
16/07:30pm 22.1 21.6 19.1 83 1.9 NE 20 37 11 20 - - 0.2
16/07:00pm 22.6 22.3 19.2 81 2.2 NE 19 37 10 20 - - 0.2
16/06:30pm 23.0 22.5 19.0 78 2.6 NE 20 39 11 21 - - 0.2
16/06:00pm 23.6 23.2 18.9 75 3.0 NE 19 32 10 17 - - 0.2
16/05:30pm 24.5 24.2 19.1 72 3.5 NE 19 39 10 21 - - 0.2
16/05:00pm 24.7 24.3 18.9 70 3.7 NE 19 44 10 24 - - 0.2
16/04:30pm 25.3 24.8 18.7 67 4.2 NE 19 33 10 18 - - 0.2
16/04:00pm 25.6 25.0 18.8 66 4.4 NE 20 43 11 23 - - 0.2
16/03:30pm 25.6 25.2 18.8 66 4.4 NE 19 37 10 20 - - 0.2
16/03:00pm 25.9 25.6 19.1 66 4.4 NNE 19 32 10 17 - - 0.2
16/02:30pm 26.0 26.3 18.7 64 4.7 NE 15 32 8 17 - - 0.2
16/02:00pm 26.0 26.0 18.9 65 4.6 NE 17 32 9 17 - - 0.2
16/01:30pm 26.8 27.5 19.7 65 4.6 NE 15 28 8 15 - - 0.2
16/01:00pm 26.3 26.9 19.4 66 4.5 NE 15 28 8 15 - - 0.2
16/12:30pm 25.6 26.0 19.0 67 4.3 NE 15 24 8 13 - - 0.2
16/12:00pm 26.5 27.1 19.4 65 4.6 NE 15 30 8 16 - - 0.2
16/11:30am 25.4 26.2 19.1 68 4.1 NE 13 24 7 13 - - 0.0
16/11:00am 25.0 26.1 19.6 72 3.5 NE 13 24 7 13 - - 0.0
16/10:30am 23.9 25.2 19.2 75 3.0 ENE 11 19 6 10 - - 0.0
16/10:00am 23.5 25.0 18.8 75 3.0 NNE 9 17 5 9 - - 0.0
16/09:30am 22.6 24.7 19.4 82 2.1 NNE 7 15 4 8 - - 0.0
16/09:00am 22.0 23.9 19.0 83 1.9 N 7 15 4 8 - - 0.0
16/08:30am 22.1 24.2 19.3 84 1.8 N 7 15 4 8 - - 0.0
16/08:00am 21.0 22.8 18.8 87 1.4 N 7 11 4 6 - - 0.0
16/07:30am 20.9 22.9 18.8 88 1.3 N 6 9 3 5 - - 0.0
16/07:00am 20.1 22.1 18.8 92 0.8 N 6 9 3 5 - - 0.0
16/06:30am 19.4 21.1 18.4 94 0.6 N 7 13 4 7 - - 0.0
16/06:00am 19.3 20.9 18.3 94 0.6 NNE 7 11 4 6 - - 0.0
16/05:30am 19.6 20.9 18.4 93 0.8 N 9 13 5 7 - - 0.0
16/05:00am 19.5 21.1 18.3 93 0.7 N 7 13 4 7 - - 0.0
16/04:30am 19.6 21.2 18.3 92 0.8 N 7 11 4 6 - - 0.0
16/04:00am 19.7 21.3 18.2 91 0.9 N 7 11 4 6 - - 0.0
16/03:30am 19.8 21.3 18.1 90 1.1 N 7 9 4 5 - - 0.0
16/03:00am 20.0 21.5 18.1 89 1.2 N 7 11 4 6 - - 0.0
16/02:30am 20.1 21.9 18.2 89 1.2 NNE 6 9 3 5 - - 0.0
16/02:00am 20.4 22.3 18.5 89 1.2 NNE 6 11 3 6 - - 0.0
16/01:30am 20.3 22.0 18.6 90 1.1 NNE 7 15 4 8 - - 0.0
16/01:00am 20.4 22.3 18.9 91 0.9 N 7 11 4 6 - - 0.0
16/12:30am 20.0 22.1 19.0 94 0.6 NNE 6 7 3 4 - - 0.0
16/12:00am 20.5 22.3 18.8 90 1.1 NNE 7 17 4 9 - - 0.0
 
Date/Time
EDT
Temp
°C
App
Temp
°C
Dew
Point
°C
Rel
Hum
%
Delta-T
°C
Wind Press
QNH
hPa
Press
MSL
hPa
Rain since
9am
mm
Dir  Spd
km/h
Gust
km/h
Spd
kts
Gust
kts
15/11:30pm 20.3 22.3 18.8 91 0.9 NE 6 15 3 8 - - 0.0
15/11:00pm 20.2 22.1 19.0 93 0.8 NE 7 13 4 7 - - 0.0
15/10:30pm 19.9 22.0 18.9 94 0.6 NE 6 11 3 6 - - 0.0
15/10:00pm 19.9 22.0 18.9 94 0.6 NE 6 9 3 5 - - 0.0
15/09:30pm 20.2 22.1 18.9 92 0.8 NE 7 13 4 7 - - 0.0
15/09:00pm 20.4 22.3 18.9 91 0.9 ENE 7 15 4 8 - - 0.0
15/08:30pm 20.9 22.4 18.8 88 1.3 ENE 9 15 5 8 - - 0.0
15/08:00pm 21.3 22.0 18.9 86 1.5 ENE 13 20 7 11 - - 0.0
15/07:30pm 21.5 21.5 18.1 81 2.1 ENE 15 24 8 13 - - 0.0
15/07:00pm 21.8 21.5 18.2 80 2.3 ENE 17 24 9 13 - - 0.0
15/06:30pm 22.4 22.2 18.4 78 2.5 ENE 17 26 9 14 - - 0.0
15/06:00pm 22.9 23.2 18.7 77 2.7 ENE 15 24 8 13 - - 0.0
15/05:30pm 22.4 22.7 18.8 80 2.3 ENE 15 24 8 13 - - 0.0
15/05:00pm 22.3 21.7 18.5 79 2.4 E 19 28 10 15 - - 0.0
15/04:30pm 22.6 22.6 19.0 80 2.3 E 17 24 9 13 - - 0.0
15/04:00pm 22.4 22.8 19.0 81 2.2 E 15 24 8 13 - - 0.0
15/03:30pm 22.8 23.2 19.0 79 2.4 E 15 28 8 15 - - 0.0
15/03:00pm 23.6 23.4 18.5 73 3.2 E 17 28 9 15 - - 0.0
15/02:30pm 23.1 22.5 18.4 75 3.0 E 19 28 10 15 - - 0.0
15/02:00pm 23.0 23.0 19.0 78 2.6 E 17 26 9 14 - - 0.0
15/01:30pm 22.9 23.2 18.7 77 2.7 E 15 24 8 13 - - 0.0
15/01:00pm 23.6 23.6 18.0 71 3.5 E 15 22 8 12 - - 0.0
15/12:30pm 24.3 24.1 18.5 70 3.7 ENE 17 26 9 14 - - 0.0
15/12:00pm 23.3 23.4 18.4 74 3.1 ENE 15 22 8 12 - - 0.0
15/11:30am 23.6 24.6 18.7 74 3.1 ENE 11 19 6 10 - - 0.0
15/11:00am 23.3 24.1 18.2 73 3.2 ESE 11 19 6 10 - - 0.0
15/10:30am 23.9 24.4 18.3 71 3.6 E 13 24 7 13 - - 0.0
15/10:00am 23.3 24.0 18.8 76 2.9 E 13 24 7 13 - - 0.0
15/09:30am 24.0 24.1 18.4 71 3.6 E 15 24 8 13 - - 0.0
15/09:00am 24.5 25.9 18.7 70 3.7 E 9 15 5 8 - - 0.2
15/08:30am 23.9 24.7 18.1 70 3.7 E 11 19 6 10 - - 0.2
15/08:00am 23.1 23.8 18.8 77 2.7 E 13 22 7 12 - - 0.2
15/07:30am 21.8 23.4 19.2 85 1.7 E 9 13 5 7 - - 0.2
15/07:00am 21.8 24.7 19.9 89 1.2 E 4 7 2 4 - - 0.2
15/06:30am 20.6 22.7 19.3 92 0.8 E 7 13 4 7 - - 0.2
15/06:00am 20.5 22.6 19.0 91 1.0 ESE 6 9 3 5 - - 0.2
15/05:30am 20.7 22.5 18.8 89 1.2 E 7 11 4 6 - - 0.2
15/05:00am 20.9 22.0 18.8 88 1.3 E 11 17 6 9 - - 0.2
15/04:30am 20.8 22.3 18.9 89 1.2 E 9 13 5 7 - - 0.2
15/04:00am 20.9 22.9 19.2 90 1.1 SE 7 13 4 7 - - 0.2
15/03:30am 20.9 22.2 19.2 90 1.1 ESE 11 15 6 8 - - 0.2
15/03:00am 20.9 22.4 19.0 89 1.2 ESE 9 17 5 9 - - 0.2
15/02:30am 21.0 22.8 19.5 91 1.0 SE 9 17 5 9 - - 0.2
15/02:00am 21.0 22.8 19.5 91 1.0 ESE 9 13 5 7 - - 0.2
15/01:30am 21.1 22.6 19.7 92 0.9 ESE 11 17 6 9 - - 0.2
15/01:00am 21.1 22.8 20.1 94 0.6 ESE 11 17 6 9 - - 0.2
15/12:30am 21.1 23.1 20.8 98 0.2 ESE 11 19 6 10 - - 0.2
15/12:00am 21.0 22.6 20.7 98 0.2 ESE 13 20 7 11 - - 0.2
 
Date/Time
EDT
Temp
°C
App
Temp
°C
Dew
Point
°C
Rel
Hum
%
Delta-T
°C
Wind Press
QNH
hPa
Press
MSL
hPa
Rain since
9am
mm
Dir  Spd
km/h
Gust
km/h
Spd
kts
Gust
kts
14/11:30pm 21.6 23.9 21.3 98 0.2 ESE 11 17 6 9 - - 0.0
14/11:00pm 22.0 23.8 21.2 95 0.5 ESE 13 20 7 11 - - 0.0
14/10:30pm 22.2 24.6 21.5 96 0.5 ESE 11 20 6 11 - - 0.0
14/10:00pm 22.5 25.0 21.7 95 0.5 ESE 11 19 6 10 - - 0.0

Other Formats:

Comma delimited format used in spreadsheet applications
http://www.bom.gov.au/fwo/IDN60801/IDN60801.94759.axf

JavaScript Object Notation format (JSON) in row-major order
http://www.bom.gov.au/fwo/IDN60801/IDN60801.94759.json